createdAt,value
2016-04-21T08:26:26.370Z,2490
2016-04-21T08:28:07.232Z,2405
2016-04-21T08:29:07.220Z,2465
2016-04-21T08:30:07.206Z,2435
2016-04-21T08:31:07.208Z,2415
2016-04-21T08:32:07.212Z,2425
2016-04-21T08:33:07.230Z,2435
2016-04-21T08:34:07.217Z,2440
2016-04-21T08:35:07.220Z,2430
2016-04-21T08:36:07.222Z,2440
2016-04-21T08:37:07.225Z,2450
2016-04-21T08:38:07.227Z,2485
2016-04-21T08:39:07.215Z,2500
2016-04-21T08:40:07.233Z,2500
2016-04-21T08:41:07.220Z,2515
2016-04-21T08:42:07.239Z,2550
2016-04-21T08:43:07.226Z,2570
2016-04-21T08:44:07.229Z,2595
2016-04-21T08:45:07.247Z,2595
2016-04-21T08:46:07.234Z,2590
2016-04-21T08:47:07.236Z,2605
2016-04-21T08:48:07.271Z,2605
2016-04-21T08:49:07.102Z,2605
2016-04-21T08:50:07.073Z,2620
2016-04-21T08:51:07.075Z,2640
2016-04-21T08:52:07.145Z,2675
2016-04-21T08:53:07.086Z,2700
2016-04-21T08:54:07.229Z,2670
2016-04-21T08:55:07.263Z,2695
2016-04-21T08:56:07.234Z,2700
2016-04-21T08:57:07.236Z,2700
2016-04-21T08:58:07.239Z,2665
2016-04-21T08:59:07.305Z,2685
2016-04-21T09:00:07.229Z,2635
2016-04-21T09:01:07.263Z,2600
2016-04-21T09:02:07.251Z,2620
2016-04-21T09:03:07.238Z,2645
2016-04-21T09:04:07.287Z,2710
2016-04-21T09:05:07.243Z,2715
2016-04-21T09:06:07.324Z,2715
2016-04-21T09:07:07.249Z,2750
2016-04-21T09:08:07.235Z,2785
2016-04-21T09:09:07.238Z,2810
2016-04-21T09:10:07.241Z,2800
2016-04-21T09:11:07.243Z,2805
2016-04-21T09:12:07.246Z,2825
2016-04-21T09:13:07.248Z,2845
2016-04-21T09:14:07.236Z,2890
2016-04-21T09:15:07.239Z,2960
2016-04-21T09:16:07.257Z,3045
2016-04-21T09:17:07.243Z,3075
2016-04-21T09:18:07.231Z,3075
2016-04-21T09:19:07.264Z,3065
2016-04-21T09:20:07.237Z,3060
2016-04-21T09:21:07.239Z,3050
2016-04-21T09:22:07.242Z,3050
2016-04-21T09:23:07.244Z,3050
2016-04-21T09:24:07.231Z,3050
2016-04-21T09:25:07.234Z,3035
2016-04-21T09:26:07.237Z,3030
2016-04-21T09:27:07.240Z,3020
2016-04-21T09:28:07.243Z,3000
2016-04-21T09:29:07.276Z,2955
2016-04-21T09:30:07.233Z,2935
2016-04-21T09:31:07.250Z,2935
2016-04-21T09:32:07.253Z,2955
2016-04-21T09:33:07.255Z,2685
2016-04-21T09:34:07.243Z,3030
2016-04-21T09:35:07.230Z,3075
2016-04-21T09:36:07.264Z,3115
2016-04-21T09:37:07.251Z,3145
2016-04-21T09:38:07.238Z,3145
2016-04-21T09:39:07.084Z,3160
2016-04-21T09:40:07.244Z,3165
2016-04-21T09:41:07.246Z,3165
2016-04-21T09:42:07.249Z,3175
2016-04-21T09:43:07.235Z,3190
2016-04-21T09:44:07.254Z,3210
2016-04-21T09:45:07.241Z,3240
2016-04-21T09:46:07.259Z,3270
2016-04-21T09:47:07.262Z,3295
2016-04-21T09:48:07.249Z,3305
2016-04-21T09:49:07.251Z,3295
2016-04-21T09:50:07.255Z,3295
2016-04-21T09:51:07.257Z,3305
2016-04-21T09:52:07.244Z,3330
2016-04-21T09:53:07.279Z,3355
2016-04-21T09:54:07.265Z,3340
2016-04-21T09:55:07.268Z,3355
2016-04-21T09:56:07.271Z,3360
2016-04-21T09:57:07.273Z,3355
2016-04-21T09:58:07.261Z,3380
2016-04-21T09:59:07.247Z,3395
2016-04-21T10:00:07.251Z,3390
2016-04-21T10:01:07.253Z,3390
2016-04-21T10:02:07.256Z,3385
2016-04-21T10:03:07.259Z,3370
2016-04-21T10:04:07.245Z,3365
2016-04-21T10:05:07.247Z,3320
2016-04-21T10:06:07.266Z,3245
2016-04-21T10:07:07.269Z,3135
2016-04-21T10:08:07.272Z,3070
2016-04-21T10:09:07.274Z,3035
2016-04-21T10:10:07.261Z,3030
2016-04-21T10:11:07.296Z,3045
2016-04-21T10:12:07.328Z,3090
2016-04-21T10:13:07.436Z,3145
2016-04-21T10:14:07.436Z,3205
2016-04-21T10:15:07.483Z,3260
2016-04-21T10:16:07.494Z,3325
2016-04-21T10:17:07.528Z,3265
2016-04-21T10:18:07.531Z,3285
2016-04-21T10:19:07.565Z,3460
2016-04-21T10:20:07.600Z,3490
2016-04-21T10:21:07.563Z,3480
2016-04-21T10:22:07.587Z,3475
2016-04-21T10:23:07.581Z,3470
2016-04-21T10:24:07.589Z,3455
2016-04-21T10:25:07.613Z,3485
2016-04-21T10:26:07.603Z,3420
2016-04-21T10:27:07.623Z,3400
2016-04-21T10:28:07.612Z,3430
2016-04-21T10:29:07.602Z,3375
2016-04-21T10:30:07.607Z,3335
2016-04-21T10:31:07.611Z,3330
2016-04-21T10:32:07.629Z,3345
2016-04-21T10:33:07.617Z,3400
2016-04-21T10:34:07.620Z,3470
2016-04-21T10:35:07.624Z,3545
2016-04-21T10:36:07.611Z,3595
2016-04-21T10:37:07.630Z,3650
2016-04-21T10:38:07.618Z,3690
2016-04-21T10:39:07.620Z,3750
2016-04-21T10:40:07.623Z,3755
2016-04-21T10:41:07.610Z,3685
2016-04-21T10:42:07.629Z,3600
2016-04-21T10:43:07.616Z,3525
2016-04-21T10:44:07.618Z,3450
2016-04-21T10:45:07.621Z,3380
2016-04-21T10:46:07.656Z,3360
2016-04-21T10:47:07.626Z,3385
2016-04-21T10:48:07.630Z,3460
2016-04-21T10:49:07.632Z,3525
2016-04-21T10:50:07.620Z,3655
2016-04-21T10:51:07.638Z,3675
2016-04-21T10:52:07.640Z,3710
2016-04-21T10:53:07.612Z,3830
2016-04-21T10:54:07.615Z,3840
2016-04-21T10:55:07.633Z,3875
2016-04-21T10:56:07.620Z,3865
2016-04-21T10:57:07.622Z,3830
2016-04-21T10:58:07.656Z,3810
2016-04-21T10:59:07.628Z,3800
2016-04-21T11:00:07.646Z,3790
2016-04-21T11:01:07.633Z,3805
2016-04-21T11:02:07.620Z,3845
2016-04-21T11:03:07.623Z,3865
2016-04-21T11:04:07.672Z,3905
2016-04-21T11:05:07.628Z,3945
2016-04-21T11:06:07.631Z,3965
2016-04-21T11:07:07.650Z,4015
2016-04-21T11:08:07.636Z,4035
2016-04-21T11:09:07.624Z,4050
2016-04-21T11:10:07.641Z,3975
2016-04-21T11:11:07.629Z,4030
2016-04-21T11:12:07.647Z,4030
2016-04-21T11:13:07.650Z,4015
2016-04-21T11:14:07.637Z,3975
2016-04-21T11:15:07.655Z,3975
2016-04-21T11:16:07.627Z,3945
2016-04-21T11:17:07.630Z,3870
2016-04-21T11:18:07.647Z,3930
2016-04-21T11:19:07.665Z,3920
2016-04-21T11:20:07.637Z,3925
2016-04-21T11:21:07.656Z,3890
2016-04-21T11:22:07.642Z,3885
2016-04-21T11:23:07.646Z,3960
2016-04-21T11:24:07.633Z,3960
2016-04-21T11:25:07.636Z,3965
2016-04-21T11:26:07.653Z,3960
2016-04-21T11:27:07.687Z,3965
2016-04-21T11:28:07.644Z,3960
2016-04-21T11:29:07.647Z,3975
2016-04-21T11:30:07.664Z,3955
2016-04-21T11:31:07.652Z,3915
2016-04-21T11:32:07.638Z,3915
2016-04-21T11:33:07.672Z,3895
2016-04-21T11:34:07.488Z,3875
2016-04-21T11:35:07.647Z,3820
2016-04-21T11:36:07.649Z,3855
2016-04-21T11:37:07.652Z,3940
2016-04-21T11:38:07.654Z,3930
2016-04-21T11:39:07.673Z,3905
2016-04-21T11:40:07.660Z,3950
2016-04-21T11:41:07.663Z,3965
2016-04-21T11:42:07.744Z,3990
2016-04-21T11:43:07.652Z,3980
2016-04-21T11:44:07.702Z,3960
2016-04-21T11:45:07.658Z,3960
2016-04-21T11:46:07.661Z,3890
2016-04-21T11:47:07.663Z,3745
2016-04-21T11:48:07.650Z,3730
2016-04-21T11:49:07.653Z,3680
2016-04-21T11:50:07.687Z,3695
2016-04-21T11:51:07.659Z,3610
2016-04-21T11:52:08.271Z,3420
2016-04-21T11:53:07.851Z,3700
2016-04-21T11:54:08.103Z,3785
2016-04-21T11:55:07.684Z,3625
2016-04-21T11:56:07.703Z,3220
2016-04-21T11:57:07.659Z,3485
2016-04-21T11:58:07.646Z,3500
2016-04-21T11:59:07.664Z,3535
2016-04-21T12:00:07.839Z,3645
2016-04-21T12:01:07.669Z,3715
2016-04-21T12:02:07.719Z,3730
2016-04-21T12:03:07.675Z,3735
2016-04-21T12:04:07.834Z,3680
2016-04-21T12:05:07.665Z,3670
2016-04-21T12:06:07.683Z,3610
2016-04-21T12:07:06.936Z,3585
2016-04-21T12:08:07.688Z,3595
2016-04-21T12:09:07.675Z,3660
2016-04-21T12:10:07.678Z,3655
2016-04-21T12:11:07.696Z,3655
2016-04-21T12:12:07.668Z,3675
2016-04-21T12:13:07.671Z,3705
2016-04-21T12:14:07.688Z,3725
2016-04-21T12:15:07.707Z,3750
2016-04-21T12:16:07.679Z,3730
2016-04-21T12:17:07.682Z,3705
2016-04-21T12:18:07.684Z,3620
2016-04-21T12:19:07.702Z,3615
2016-04-21T12:20:07.673Z,3585
2016-04-21T12:21:07.692Z,3560
2016-04-21T12:22:07.695Z,3520
2016-04-21T12:23:07.681Z,3500
2016-04-21T12:24:07.685Z,3445
2016-04-21T12:25:07.406Z,3530
2016-04-21T12:26:07.721Z,3660
2016-04-21T12:27:07.708Z,3685
2016-04-21T12:28:07.743Z,3600
2016-04-21T12:29:07.683Z,3610
2016-04-21T12:30:07.763Z,3505
2016-04-21T12:31:07.703Z,3425
2016-04-21T12:32:07.706Z,3525
2016-04-21T12:33:07.709Z,3610
2016-04-21T12:34:07.727Z,3630
2016-04-21T12:35:07.699Z,3630
2016-04-21T12:36:07.747Z,3625
2016-04-21T12:37:07.704Z,3595
2016-04-21T12:38:07.769Z,3530
2016-04-21T12:39:07.694Z,3555
2016-04-21T12:40:07.571Z,3525
2016-04-21T12:41:07.715Z,3360
2016-04-21T12:42:07.718Z,3485
2016-04-21T12:43:07.705Z,3565
2016-04-21T12:44:07.582Z,3605
2016-04-21T12:45:07.710Z,3555
2016-04-21T12:46:07.712Z,3530
2016-04-21T12:47:07.559Z,3475
2016-04-21T12:48:07.765Z,3515
2016-04-21T12:49:07.720Z,3480
2016-04-21T12:50:07.724Z,3495
2016-04-21T12:51:07.726Z,3520
2016-04-21T12:52:07.807Z,3535
2016-04-21T12:53:07.716Z,3525
2016-04-21T12:54:07.718Z,3535
2016-04-21T12:55:07.737Z,3555
2016-04-21T12:56:07.755Z,3555
2016-04-21T12:57:07.726Z,3575
2016-04-21T12:58:07.729Z,3595
2016-04-21T12:59:07.732Z,3610
2016-04-21T13:00:07.735Z,3600
2016-04-21T13:01:07.753Z,3605
2016-04-21T13:02:07.756Z,3620
2016-04-21T13:03:07.728Z,3620
2016-04-21T13:04:07.745Z,3635
2016-04-21T13:05:07.747Z,3620
2016-04-21T13:06:07.735Z,3585
2016-04-21T13:07:07.722Z,3560
2016-04-21T13:08:07.600Z,3530
2016-04-21T13:09:07.743Z,3505
2016-04-21T13:10:07.746Z,3510
2016-04-21T13:11:07.733Z,3510
2016-04-21T13:12:07.002Z,3515
2016-04-21T13:13:07.754Z,3515
2016-04-21T13:14:07.756Z,3510
2016-04-21T13:15:07.760Z,3510
2016-04-21T13:16:07.762Z,3525
2016-04-21T13:17:07.780Z,3525
2016-04-21T13:18:07.752Z,3520
2016-04-21T13:19:07.754Z,3490
2016-04-21T13:20:07.757Z,3440
2016-04-21T13:21:07.854Z,3250
2016-04-21T13:22:07.763Z,3120
2016-04-21T13:23:07.750Z,3060
2016-04-21T13:24:07.752Z,2985
2016-04-21T13:25:07.770Z,2975
2016-04-21T13:26:07.757Z,2940
2016-04-21T13:27:07.744Z,2950
2016-04-21T13:28:07.748Z,2995
2016-04-21T13:29:07.750Z,3010
2016-04-21T13:30:07.768Z,3145
2016-04-21T13:31:07.756Z,3205
2016-04-21T13:32:07.759Z,3300
2016-04-21T13:33:07.761Z,3335
2016-04-21T13:34:07.779Z,3335
2016-04-21T13:35:07.767Z,3260
2016-04-21T13:36:07.769Z,3235
2016-04-21T13:37:07.803Z,3240
2016-04-21T13:38:07.993Z,2985
2016-04-21T13:39:07.777Z,3225
2016-04-21T13:40:08.045Z,3195
2016-04-21T13:41:07.970Z,3200
2016-04-21T13:42:07.770Z,3185
2016-04-21T13:43:07.647Z,3150
2016-04-21T13:44:07.774Z,3120
2016-04-21T13:45:07.779Z,3135
2016-04-21T13:46:07.798Z,3135
2016-04-21T13:47:07.785Z,3085
2016-04-21T13:48:07.788Z,3055
2016-04-21T13:49:07.791Z,2985
2016-04-21T13:50:07.793Z,2960
2016-04-21T13:51:07.826Z,2970
2016-04-21T13:52:07.798Z,2955
2016-04-21T13:53:07.817Z,2950
2016-04-21T13:54:07.803Z,2960
2016-04-21T13:55:07.822Z,2950
2016-04-21T13:56:07.794Z,2965
2016-04-21T13:57:07.797Z,2980
2016-04-21T13:58:07.783Z,2955
2016-04-21T13:59:07.786Z,2920
2016-04-21T14:00:07.788Z,2885
2016-04-21T14:01:08.183Z,2855
2016-04-21T14:02:07.810Z,2850
2016-04-21T14:03:07.672Z,2735
2016-04-21T14:04:07.807Z,1630
2016-04-21T14:05:07.809Z,2505
2016-04-21T14:06:07.811Z,2920
2016-04-21T14:07:07.814Z,2840
2016-04-21T14:08:07.801Z,2960
2016-04-21T14:09:07.804Z,2815
2016-04-21T14:10:07.807Z,2710
2016-04-21T14:11:07.809Z,2875
2016-04-21T14:12:07.812Z,2865
2016-04-21T14:13:07.798Z,2690
2016-04-21T14:14:07.834Z,2850
2016-04-21T14:15:07.820Z,2855
2016-04-21T14:16:07.822Z,2850
2016-04-21T14:17:07.809Z,2775
2016-04-21T14:18:07.812Z,2785
2016-04-21T14:19:07.815Z,2720
2016-04-21T14:20:07.817Z,2795
2016-04-21T14:21:07.821Z,2805
2016-04-21T14:22:07.902Z,2820
2016-04-21T14:23:07.820Z,2870
2016-04-21T14:24:07.104Z,2540
2016-04-21T14:25:07.810Z,2445
2016-04-21T14:26:07.812Z,1900
2016-04-21T14:27:07.816Z,2210
2016-04-21T14:28:07.818Z,2460
2016-04-21T14:29:07.821Z,1975
2016-04-21T14:30:07.824Z,2190
2016-04-21T14:31:07.826Z,1725
2016-04-21T14:32:07.829Z,2165
2016-04-21T14:33:07.863Z,2785
2016-04-21T14:34:07.850Z,2745
2016-04-21T14:35:07.837Z,2710
2016-04-21T14:36:07.839Z,2745
2016-04-21T14:37:07.811Z,2725
2016-04-21T14:38:07.829Z,2465
2016-04-21T14:39:07.832Z,1150
2016-04-21T14:40:07.834Z,1645
2016-04-21T14:41:07.852Z,1560
2016-04-21T14:42:07.825Z,1205
2016-04-21T14:43:07.842Z,1020
2016-04-21T14:44:07.830Z,1305
2016-04-21T14:45:07.833Z,1050
2016-04-21T14:46:07.835Z,965
2016-04-21T14:47:07.885Z,790
2016-04-21T14:48:07.856Z,630
2016-04-21T14:49:07.844Z,610
2016-04-21T14:50:07.846Z,620
2016-04-21T14:51:07.833Z,635
2016-04-21T14:52:07.821Z,650
2016-04-21T14:53:07.823Z,680
2016-04-21T14:54:07.825Z,730
2016-04-21T14:55:07.656Z,740
2016-04-21T14:56:07.815Z,810
2016-04-21T14:57:07.802Z,820
2016-04-21T14:58:07.805Z,1435
2016-04-21T14:59:07.808Z,1330
2016-04-21T15:00:07.810Z,1030
2016-04-21T15:01:07.797Z,995
2016-04-21T15:02:07.801Z,1300
2016-04-21T15:03:07.803Z,990
2016-04-21T15:04:07.837Z,1015
2016-04-21T15:05:07.824Z,1515
2016-04-21T15:06:07.795Z,1615
2016-04-21T15:07:07.782Z,1690
2016-04-21T15:08:07.800Z,1120
2016-04-21T15:09:07.053Z,1085
2016-04-21T15:10:07.775Z,1100
2016-04-21T15:11:07.778Z,965
2016-04-21T15:12:07.780Z,1175
2016-04-21T15:13:07.611Z,1095
2016-04-21T15:14:07.770Z,1200
2016-04-21T15:15:07.819Z,1010
2016-04-21T15:16:07.760Z,1215
2016-04-21T15:17:07.762Z,1275
2016-04-21T15:18:07.765Z,1425
2016-04-21T15:19:07.611Z,1420
2016-04-21T15:20:07.755Z,1420
2016-04-21T15:21:07.741Z,1405
2016-04-21T15:22:07.744Z,1250
2016-04-21T15:23:07.779Z,1165
2016-04-21T15:24:07.749Z,870
2016-04-21T15:25:07.737Z,815
2016-04-21T15:26:07.740Z,770
2016-04-21T15:27:07.758Z,735
2016-04-21T15:28:07.729Z,705
2016-04-21T15:29:07.732Z,690
2016-04-21T15:30:07.719Z,670
2016-04-21T15:31:07.738Z,650
2016-04-21T15:32:07.709Z,630
2016-04-21T15:33:07.711Z,615
2016-04-21T15:34:07.715Z,605
2016-04-21T15:35:07.732Z,585
2016-04-21T15:36:07.704Z,565
2016-04-21T15:37:07.692Z,545
2016-04-21T15:38:07.709Z,530
2016-04-21T15:39:07.697Z,515
2016-04-21T15:40:07.715Z,500
2016-04-21T15:41:07.687Z,485
2016-04-21T15:42:07.673Z,485
2016-04-21T15:43:07.676Z,485
2016-04-21T15:44:07.678Z,505
2016-04-21T15:45:07.681Z,540
2016-04-21T15:46:07.669Z,620
2016-04-21T15:47:07.671Z,895
2016-04-21T15:48:07.658Z,1070
2016-04-21T15:49:07.645Z,1195
2016-04-21T15:50:07.647Z,1035
2016-04-21T15:51:07.635Z,835
2016-04-21T15:52:07.638Z,525
2016-04-21T15:53:07.641Z,495
2016-04-21T15:54:07.627Z,475
2016-04-21T15:55:07.615Z,465
2016-04-21T15:56:07.618Z,470
2016-04-21T15:57:07.636Z,460
2016-04-21T15:58:07.607Z,455
2016-04-21T15:59:07.594Z,455
2016-04-21T16:00:07.613Z,460
2016-04-21T16:01:07.584Z,465
2016-04-21T16:02:07.587Z,465
2016-04-21T16:03:07.589Z,475
2016-04-21T16:04:07.577Z,480
2016-04-21T16:05:07.579Z,495
2016-04-21T16:06:07.566Z,510
2016-04-21T16:07:07.568Z,515
2016-04-21T16:08:07.556Z,525
2016-04-21T16:09:07.558Z,535
2016-04-21T16:10:07.545Z,540
2016-04-21T16:11:07.564Z,545
2016-04-21T16:12:07.550Z,545
2016-04-21T16:13:07.523Z,540
2016-04-21T16:14:07.525Z,535
2016-04-21T16:15:07.512Z,525
2016-04-21T16:16:07.514Z,515
2016-04-21T16:17:07.502Z,500
2016-04-21T16:18:07.505Z,490
2016-04-21T16:19:07.492Z,485
2016-04-21T16:20:07.698Z,490
2016-04-21T16:21:07.497Z,490
2016-04-21T16:22:07.483Z,490
2016-04-21T16:23:07.502Z,490
2016-04-21T16:24:07.474Z,485
2016-04-21T16:25:07.476Z,480
2016-04-21T16:26:07.463Z,480
2016-04-21T16:27:07.451Z,475
2016-04-21T16:28:07.454Z,470
2016-04-21T16:29:07.440Z,470
2016-04-21T16:30:07.443Z,465
2016-04-21T16:31:07.446Z,465
2016-04-21T16:32:07.433Z,460
2016-04-21T16:33:07.420Z,460
2016-04-21T16:34:07.423Z,455
2016-04-21T16:35:07.426Z,455
2016-04-21T16:36:07.429Z,455
2016-04-21T16:37:07.399Z,450
2016-04-21T16:38:07.402Z,450
2016-04-21T16:39:07.389Z,445
2016-04-21T16:40:07.376Z,445
2016-04-21T16:41:07.363Z,435
2016-04-21T16:42:07.382Z,440
2016-04-21T16:43:07.369Z,430
2016-04-21T16:44:07.356Z,430
2016-04-21T16:45:07.342Z,425
2016-04-21T16:46:07.345Z,420
2016-04-21T16:47:07.348Z,420
2016-04-21T16:48:07.336Z,415
2016-04-21T16:49:08.510Z,415
2016-04-21T16:50:07.341Z,425
2016-04-21T16:51:07.312Z,420
2016-04-21T16:52:07.331Z,425
2016-04-21T16:53:07.302Z,425
2016-04-21T16:54:07.289Z,425
2016-04-21T16:55:07.322Z,425
2016-04-21T16:56:07.279Z,425
2016-04-21T16:57:09.391Z,430
2016-04-21T16:58:07.284Z,430
2016-04-21T16:59:07.271Z,445
2016-04-21T17:00:06.524Z,450
2016-04-21T17:01:07.261Z,440
2016-04-21T17:02:07.435Z,435
2016-04-21T17:03:07.282Z,430
2016-04-21T17:04:07.254Z,420
2016-04-21T17:05:07.240Z,415
2016-04-21T17:06:07.227Z,400
2016-04-21T17:07:07.230Z,385
2016-04-21T17:08:07.233Z,375
2016-04-21T17:09:07.220Z,360
2016-04-21T17:10:07.238Z,350
2016-04-21T17:11:07.195Z,345
2016-04-21T17:12:07.197Z,340
2016-04-21T17:13:07.199Z,335
2016-04-21T17:14:07.030Z,330
2016-04-21T17:15:07.173Z,320
2016-04-21T17:16:07.176Z,315
2016-04-21T17:17:07.178Z,305
2016-04-21T17:18:07.166Z,300
2016-04-21T17:19:07.184Z,285
2016-04-21T17:20:07.078Z,280
2016-04-21T17:21:07.142Z,270
2016-04-21T17:22:07.145Z,260
2016-04-21T17:23:07.133Z,245
2016-04-21T17:24:07.120Z,235
2016-04-21T17:25:07.153Z,225
2016-04-21T17:26:06.766Z,220
2016-04-21T17:27:07.113Z,215
2016-04-21T17:28:07.099Z,210
2016-04-21T17:29:07.102Z,205
2016-04-21T17:30:07.088Z,200
2016-04-21T17:31:07.107Z,195
2016-04-21T17:32:07.079Z,190
2016-04-21T17:33:07.066Z,185
2016-04-21T17:34:07.068Z,185
2016-04-21T17:35:07.071Z,180
2016-04-21T17:36:07.090Z,180
2016-04-21T17:37:07.045Z,175
2016-04-21T17:38:07.063Z,170
2016-04-21T17:39:07.035Z,170
2016-04-21T17:40:07.023Z,170
2016-04-21T17:41:07.025Z,165
2016-04-21T17:42:07.028Z,160
2016-04-21T17:43:06.999Z,160
2016-04-21T17:44:06.986Z,155
2016-04-21T17:45:07.020Z,150
2016-04-21T17:46:06.975Z,150
2016-04-21T17:47:06.979Z,150
2016-04-21T17:48:06.981Z,145
2016-04-21T17:49:06.953Z,140
2016-04-21T17:50:06.955Z,135
2016-04-21T17:51:06.958Z,135
2016-04-21T17:52:06.945Z,130
2016-04-21T17:53:06.932Z,130
2016-04-21T17:54:06.935Z,125
2016-04-21T17:55:06.922Z,125
2016-04-21T17:56:06.924Z,125
2016-04-21T17:57:06.911Z,120
2016-04-21T17:58:06.899Z,120
2016-04-21T17:59:06.885Z,115
2016-04-21T18:00:06.873Z,115
2016-04-21T18:01:06.875Z,110
2016-04-21T18:02:06.877Z,110
2016-04-21T18:03:06.866Z,105
2016-04-21T18:04:06.854Z,100
2016-04-21T18:05:06.873Z,95
2016-04-21T18:06:06.829Z,95
2016-04-21T18:07:06.846Z,90
2016-04-21T18:08:06.818Z,85
2016-04-21T18:09:06.821Z,80
2016-04-21T18:10:06.792Z,80
2016-04-21T18:11:06.561Z,80
2016-04-21T18:12:06.782Z,80
2016-04-21T18:13:06.785Z,75
2016-04-21T18:14:06.803Z,70
2016-04-21T18:15:06.774Z,70
2016-04-21T18:16:06.809Z,65
2016-04-21T18:17:06.752Z,65
2016-04-21T18:18:06.740Z,60
2016-04-21T18:19:06.742Z,55
2016-04-21T18:20:06.729Z,55
2016-04-21T18:21:06.858Z,50
2016-04-21T18:22:06.704Z,50
2016-04-21T18:23:06.692Z,45
2016-04-21T18:24:06.694Z,45
2016-04-21T18:25:06.681Z,40
2016-04-21T18:26:06.793Z,40
2016-04-21T18:27:06.687Z,35
2016-04-21T18:28:06.673Z,35
2016-04-21T18:29:06.645Z,30
2016-04-21T18:30:06.648Z,30
2016-04-21T18:31:06.651Z,25
2016-04-21T18:32:06.621Z,25
2016-04-21T18:33:06.656Z,25
2016-04-21T18:34:06.596Z,20
2016-04-21T18:35:06.614Z,20
2016-04-21T18:36:06.586Z,20
2016-04-21T18:37:07.323Z,15
2016-04-21T18:38:06.576Z,15
2016-04-21T18:39:06.562Z,15
2016-04-21T18:40:06.550Z,15
2016-04-21T18:41:05.881Z,10
2016-04-21T18:42:06.617Z,10
2016-04-21T18:43:06.526Z,10
2016-04-21T18:44:06.514Z,10
2016-04-21T18:45:06.501Z,5
2016-04-21T18:46:06.488Z,5
2016-04-21T18:47:06.741Z,5
2016-04-21T18:48:06.322Z,5
2016-04-21T18:49:06.464Z,5
2016-04-21T18:50:06.467Z,5
2016-04-21T18:51:06.470Z,5
2016-04-21T18:52:05.692Z,0
2016-04-21T18:53:06.428Z,0
2016-04-21T18:54:06.259Z,0
2016-04-21T18:55:06.419Z,0
2016-04-21T18:56:06.406Z,0
2016-04-21T18:57:06.392Z,0
2016-04-21T18:58:06.379Z,0
2016-04-21T18:59:06.382Z,0
2016-04-21T19:00:06.369Z,0
2016-04-21T19:01:06.357Z,0
2016-04-21T19:02:06.343Z,0
2016-04-21T19:03:06.346Z,0
2016-04-21T19:04:06.323Z,0
2016-04-21T19:05:06.325Z,0
2016-04-21T19:06:06.312Z,0
2016-04-21T19:07:06.330Z,0
2016-04-21T19:08:06.130Z,0
2016-04-21T19:09:06.289Z,0
2016-04-21T19:10:06.261Z,0
2016-04-21T19:11:06.294Z,0
2016-04-21T19:12:06.250Z,0
2016-04-21T19:13:06.269Z,0
2016-04-21T19:14:06.240Z,0
2016-04-21T19:15:06.227Z,0
2016-04-21T19:16:06.236Z,0
2016-04-21T19:17:06.246Z,0
2016-04-21T19:18:06.288Z,0
2016-04-21T19:19:06.298Z,0
2016-04-21T19:20:06.340Z,0
2016-04-21T19:21:06.348Z,0
2016-04-21T19:22:06.412Z,0
2016-04-21T19:23:06.355Z,0
2016-04-21T19:24:06.356Z,0
2016-04-21T19:25:05.623Z,0
2016-04-21T19:26:06.373Z,0
2016-04-21T19:27:06.365Z,0
2016-04-21T19:28:06.357Z,0
2016-04-21T19:29:06.349Z,0
2016-04-21T19:30:06.356Z,0
2016-04-21T19:31:06.364Z,0
2016-04-21T19:32:06.337Z,0
2016-04-21T19:33:06.342Z,0
2016-04-21T19:34:06.346Z,0
2016-04-21T19:35:06.320Z,0
2016-04-21T19:36:06.309Z,0
2016-04-21T19:37:06.139Z,0
2016-04-21T19:38:06.033Z,0
2016-04-21T19:39:06.287Z,0
2016-04-21T19:40:06.384Z,0
2016-04-21T19:41:06.261Z,0
2016-04-21T19:42:06.249Z,0
2016-04-21T19:43:06.237Z,0
2016-04-21T19:44:06.224Z,0
2016-04-21T19:45:06.211Z,0
2016-04-21T19:46:06.214Z,0
2016-04-21T19:47:06.186Z,0
2016-04-21T19:48:10.516Z,0
2016-04-21T19:49:06.175Z,0
2016-04-21T19:50:06.163Z,0
2016-04-21T19:51:06.166Z,0
2016-04-21T19:52:06.135Z,0
2016-04-21T19:53:06.152Z,0
2016-04-21T19:54:06.124Z,0
2016-04-21T19:55:06.127Z,0
2016-04-21T19:56:06.082Z,0
2016-04-21T19:57:06.084Z,0
2016-04-21T19:58:06.071Z,0
2016-04-21T19:59:06.060Z,0
2016-04-21T20:00:06.077Z,0
2016-04-21T20:01:06.048Z,0
2016-04-21T20:02:06.036Z,0
2016-04-21T20:03:06.023Z,0
2016-04-21T20:04:06.026Z,0
2016-04-21T20:05:06.013Z,0
2016-04-21T20:06:05.984Z,0
2016-04-21T20:07:05.986Z,0
2016-04-21T20:08:05.990Z,0
2016-04-21T20:09:05.961Z,0
2016-04-21T20:10:05.948Z,0
2016-04-21T20:11:05.951Z,0
2016-04-21T20:12:05.642Z,0
2016-04-21T20:13:05.908Z,0
2016-04-21T20:14:05.897Z,0
2016-04-21T20:15:05.883Z,0
2016-04-21T20:16:05.870Z,0
2016-04-21T20:17:05.873Z,0
2016-04-21T20:18:05.844Z,0
2016-04-21T20:19:05.847Z,0
2016-04-21T20:20:05.866Z,0
2016-04-21T20:21:05.837Z,0
2016-04-21T20:22:05.825Z,0
2016-04-21T20:23:05.811Z,0
2016-04-21T20:24:05.799Z,0
2016-04-21T20:25:05.786Z,0
2016-04-21T20:26:05.772Z,0
2016-04-21T20:27:05.775Z,0
2016-04-21T20:28:05.762Z,0
2016-04-21T20:29:05.765Z,0
2016-04-21T20:30:05.737Z,0
2016-04-21T20:31:05.723Z,0
2016-04-21T20:32:05.726Z,0
2016-04-21T20:33:05.713Z,0
2016-04-21T20:34:05.701Z,0
2016-04-21T20:35:05.671Z,0
2016-04-21T20:36:05.658Z,0
2016-04-21T20:37:05.661Z,0
2016-04-21T20:38:05.648Z,0
2016-04-21T20:39:05.635Z,0
2016-04-21T20:40:05.638Z,0
2016-04-21T20:41:05.609Z,0
2016-04-21T20:42:05.597Z,0
2016-04-21T20:43:05.646Z,0
2016-04-21T20:44:05.586Z,0
2016-04-21T20:45:05.558Z,0
2016-04-21T20:46:05.545Z,0
2016-04-21T20:47:05.548Z,0
2016-04-21T20:48:05.550Z,0
2016-04-21T20:49:05.537Z,0
2016-04-21T20:50:05.508Z,0
2016-04-21T20:51:05.496Z,0
2016-04-21T20:52:05.514Z,0
2016-04-21T20:53:05.501Z,0
2016-04-21T20:54:05.473Z,0
2016-04-21T20:55:05.460Z,0
2016-04-21T20:56:05.447Z,0
2016-04-21T20:57:05.450Z,0
2016-04-21T20:58:05.437Z,0
2016-04-21T20:59:05.407Z,0
2016-04-21T21:00:05.396Z,0
2016-04-21T21:01:05.382Z,0
2016-04-21T21:02:05.384Z,0
2016-04-21T21:03:05.371Z,0
2016-04-21T21:04:05.359Z,0
2016-04-21T21:05:05.346Z,0
2016-04-21T21:06:05.333Z,0
2016-04-21T21:07:05.320Z,0
2016-04-21T21:08:05.323Z,0
2016-04-21T21:09:05.294Z,0
2016-04-21T21:10:05.297Z,0
2016-04-21T21:11:05.284Z,0
2016-04-21T21:12:05.131Z,0
2016-04-21T21:13:05.273Z,0
2016-04-21T21:14:05.245Z,0
2016-04-21T21:15:05.233Z,0
2016-04-21T21:16:05.235Z,0
2016-04-21T21:17:05.222Z,0
2016-04-21T21:18:05.209Z,0
2016-04-21T21:19:05.197Z,0
2016-04-21T21:20:05.183Z,0
2016-04-21T21:21:05.186Z,0
2016-04-21T21:22:05.173Z,0
2016-04-21T21:23:05.145Z,0
2016-04-21T21:24:05.147Z,0
2016-04-21T21:25:05.135Z,0
2016-04-21T21:26:05.105Z,0
2016-04-21T21:27:05.155Z,0
2016-04-21T21:28:05.095Z,0
2016-04-21T21:29:04.926Z,0
2016-04-21T21:30:05.069Z,0
2016-04-21T21:31:05.057Z,0
2016-04-21T21:32:05.059Z,0
2016-04-21T21:33:05.031Z,0
2016-04-21T21:34:05.034Z,0
2016-04-21T21:35:05.005Z,0
2016-04-21T21:36:05.007Z,0
2016-04-21T21:37:04.995Z,0
2016-04-21T21:38:04.982Z,0
2016-04-21T21:39:04.968Z,0
2016-04-21T21:40:04.956Z,0
2016-04-21T21:41:04.943Z,0
2016-04-21T21:42:04.976Z,0
2016-04-21T21:43:04.948Z,0
2016-04-21T21:44:04.919Z,0
2016-04-21T21:45:04.906Z,0
2016-04-21T21:46:04.894Z,0
2016-04-21T21:47:04.881Z,0
2016-04-21T21:48:04.867Z,0
2016-04-21T21:49:04.870Z,0
2016-04-21T21:50:04.842Z,0
2016-04-21T21:51:04.845Z,0
2016-04-21T21:52:04.832Z,0
2016-04-21T21:53:04.819Z,0
2016-04-21T21:54:04.806Z,0
2016-04-21T21:55:04.778Z,0
2016-04-21T21:56:04.796Z,0
2016-04-21T21:57:04.799Z,0
2016-04-21T21:58:04.786Z,0
2016-04-21T21:59:04.772Z,0
2016-04-21T22:00:04.743Z,0
2016-04-21T22:01:04.731Z,0
2016-04-21T22:02:04.734Z,0
2016-04-21T22:03:04.705Z,0
2016-04-21T22:04:04.693Z,0
2016-04-21T22:05:04.679Z,0
2016-04-21T22:06:04.666Z,0
2016-04-21T22:07:04.654Z,0
2016-04-21T22:08:04.640Z,0
2016-04-21T22:09:04.643Z,0
2016-04-21T22:10:04.631Z,0
2016-04-21T22:11:04.618Z,0
2016-04-21T22:12:04.339Z,0
2016-04-21T22:13:04.592Z,0
2016-04-21T22:14:04.563Z,0
2016-04-21T22:15:04.565Z,0